sensor_id;sensor_type;location;lat;lon;timestamp;P1;durP1;ratioP1;P2;durP2;ratioP2
73814;SDS011;62145;55.648;37.602;2023-04-24T00:01:16;10.13;;;4.77;;
73814;SDS011;62145;55.648;37.602;2023-04-24T00:03:42;9.20;;;4.32;;
73814;SDS011;62145;55.648;37.602;2023-04-24T00:06:08;10.05;;;4.70;;
73814;SDS011;62145;55.648;37.602;2023-04-24T00:08:34;8.97;;;4.40;;
73814;SDS011;62145;55.648;37.602;2023-04-24T00:11:03;9.60;;;4.50;;
73814;SDS011;62145;55.648;37.602;2023-04-24T00:13:29;12.15;;;4.82;;
73814;SDS011;62145;55.648;37.602;2023-04-24T00:15:55;9.82;;;4.68;;
73814;SDS011;62145;55.648;37.602;2023-04-24T00:18:21;11.20;;;5.07;;
73814;SDS011;62145;55.648;37.602;2023-04-24T00:20:47;10.63;;;5.37;;
73814;SDS011;62145;55.648;37.602;2023-04-24T00:23:13;9.82;;;5.40;;
73814;SDS011;62145;55.648;37.602;2023-04-24T00:25:39;11.52;;;4.93;;
73814;SDS011;62145;55.648;37.602;2023-04-24T00:28:05;12.23;;;5.17;;
73814;SDS011;62145;55.648;37.602;2023-04-24T00:30:31;11.30;;;5.43;;
73814;SDS011;62145;55.648;37.602;2023-04-24T00:32:57;9.68;;;5.43;;
73814;SDS011;62145;55.648;37.602;2023-04-24T00:35:24;10.45;;;5.28;;
73814;SDS011;62145;55.648;37.602;2023-04-24T00:37:50;9.20;;;5.40;;
73814;SDS011;62145;55.648;37.602;2023-04-24T00:40:16;9.57;;;5.38;;
73814;SDS011;62145;55.648;37.602;2023-04-24T00:42:43;12.98;;;4.82;;
73814;SDS011;62145;55.648;37.602;2023-04-24T00:45:09;10.18;;;5.22;;
73814;SDS011;62145;55.648;37.602;2023-04-24T00:47:35;9.27;;;5.20;;
73814;SDS011;62145;55.648;37.602;2023-04-24T00:50:02;11.73;;;6.18;;
73814;SDS011;62145;55.648;37.602;2023-04-24T00:52:29;10.50;;;5.93;;
73814;SDS011;62145;55.648;37.602;2023-04-24T00:55:00;10.75;;;6.00;;
73814;SDS011;62145;55.648;37.602;2023-04-24T00:57:26;12.68;;;6.55;;
73814;SDS011;62145;55.648;37.602;2023-04-24T00:59:52;13.13;;;6.07;;
73814;SDS011;62145;55.648;37.602;2023-04-24T01:02:18;11.20;;;6.00;;
73814;SDS011;62145;55.648;37.602;2023-04-24T01:04:49;11.80;;;6.50;;
73814;SDS011;62145;55.648;37.602;2023-04-24T01:07:17;12.80;;;6.88;;
73814;SDS011;62145;55.648;37.602;2023-04-24T01:09:46;13.48;;;7.30;;
73814;SDS011;62145;55.648;37.602;2023-04-24T01:12:14;12.57;;;6.93;;
73814;SDS011;62145;55.648;37.602;2023-04-24T01:14:40;14.75;;;7.00;;
73814;SDS011;62145;55.648;37.602;2023-04-24T01:17:07;13.73;;;7.35;;
73814;SDS011;62145;55.648;37.602;2023-04-24T01:19:34;12.75;;;7.47;;
73814;SDS011;62145;55.648;37.602;2023-04-24T01:22:02;13.10;;;7.32;;
73814;SDS011;62145;55.648;37.602;2023-04-24T01:24:33;12.03;;;7.30;;
73814;SDS011;62145;55.648;37.602;2023-04-24T01:26:59;12.32;;;7.70;;
73814;SDS011;62145;55.648;37.602;2023-04-24T01:29:26;13.23;;;7.80;;
73814;SDS011;62145;55.648;37.602;2023-04-24T01:31:52;13.05;;;7.65;;
73814;SDS011;62145;55.648;37.602;2023-04-24T01:34:18;13.07;;;7.73;;
73814;SDS011;62145;55.648;37.602;2023-04-24T01:36:45;11.98;;;7.43;;
73814;SDS011;62145;55.648;37.602;2023-04-24T01:39:12;14.07;;;7.63;;
73814;SDS011;62145;55.648;37.602;2023-04-24T01:41:38;13.05;;;7.38;;
73814;SDS011;62145;55.648;37.602;2023-04-24T01:44:03;13.87;;;7.47;;
73814;SDS011;62145;55.648;37.602;2023-04-24T01:46:29;14.13;;;8.15;;
73814;SDS011;62145;55.648;37.602;2023-04-24T01:48:57;14.05;;;8.18;;
73814;SDS011;62145;55.648;37.602;2023-04-24T01:51:24;15.37;;;9.43;;
73814;SDS011;62145;55.648;37.602;2023-04-24T01:53:50;14.88;;;8.18;;
73814;SDS011;62145;55.648;37.602;2023-04-24T01:56:16;15.73;;;8.70;;
73814;SDS011;62145;55.648;37.602;2023-04-24T01:58:42;11.97;;;8.17;;
73814;SDS011;62145;55.648;37.602;2023-04-24T02:01:08;12.80;;;7.95;;
73814;SDS011;62145;55.648;37.602;2023-04-24T02:03:34;16.08;;;8.23;;
73814;SDS011;62145;55.648;37.602;2023-04-24T02:06:00;19.23;;;10.63;;
73814;SDS011;62145;55.648;37.602;2023-04-24T02:08:26;17.25;;;9.77;;
73814;SDS011;62145;55.648;37.602;2023-04-24T02:10:51;15.23;;;8.80;;
73814;SDS011;62145;55.648;37.602;2023-04-24T02:13:17;16.43;;;9.00;;
73814;SDS011;62145;55.648;37.602;2023-04-24T02:15:43;17.77;;;8.88;;
73814;SDS011;62145;55.648;37.602;2023-04-24T02:18:09;13.63;;;8.93;;
73814;SDS011;62145;55.648;37.602;2023-04-24T02:20:35;14.80;;;8.55;;
73814;SDS011;62145;55.648;37.602;2023-04-24T02:23:01;16.10;;;9.00;;
73814;SDS011;62145;55.648;37.602;2023-04-24T02:25:27;14.97;;;8.67;;
73814;SDS011;62145;55.648;37.602;2023-04-24T02:27:54;15.38;;;8.80;;
73814;SDS011;62145;55.648;37.602;2023-04-24T02:30:20;13.18;;;8.23;;
73814;SDS011;62145;55.648;37.602;2023-04-24T02:32:46;13.07;;;8.57;;
73814;SDS011;62145;55.648;37.602;2023-04-24T02:35:11;13.85;;;8.60;;
73814;SDS011;62145;55.648;37.602;2023-04-24T02:37:37;14.70;;;8.38;;
73814;SDS011;62145;55.648;37.602;2023-04-24T02:40:04;15.73;;;8.67;;
73814;SDS011;62145;55.648;37.602;2023-04-24T02:42:31;15.55;;;8.55;;
73814;SDS011;62145;55.648;37.602;2023-04-24T02:44:56;14.52;;;8.80;;
73814;SDS011;62145;55.648;37.602;2023-04-24T02:47:22;13.83;;;8.40;;
73814;SDS011;62145;55.648;37.602;2023-04-24T02:49:48;14.98;;;8.48;;
73814;SDS011;62145;55.648;37.602;2023-04-24T02:52:14;13.47;;;8.37;;
73814;SDS011;62145;55.648;37.602;2023-04-24T02:54:40;16.60;;;8.82;;
73814;SDS011;62145;55.648;37.602;2023-04-24T02:57:06;20.23;;;10.90;;
73814;SDS011;62145;55.648;37.602;2023-04-24T02:59:32;17.73;;;9.95;;
73814;SDS011;62145;55.648;37.602;2023-04-24T03:01:58;17.88;;;9.48;;
73814;SDS011;62145;55.648;37.602;2023-04-24T03:04:24;14.90;;;9.05;;
73814;SDS011;62145;55.648;37.602;2023-04-24T03:06:50;16.73;;;8.93;;
73814;SDS011;62145;55.648;37.602;2023-04-24T03:09:19;16.57;;;8.80;;
73814;SDS011;62145;55.648;37.602;2023-04-24T03:11:46;19.30;;;9.18;;
73814;SDS011;62145;55.648;37.602;2023-04-24T03:14:13;13.88;;;8.93;;
73814;SDS011;62145;55.648;37.602;2023-04-24T03:16:39;13.20;;;8.63;;
73814;SDS011;62145;55.648;37.602;2023-04-24T03:19:05;14.63;;;9.03;;
73814;SDS011;62145;55.648;37.602;2023-04-24T03:21:35;15.70;;;9.13;;
73814;SDS011;62145;55.648;37.602;2023-04-24T03:24:06;14.18;;;8.63;;
73814;SDS011;62145;55.648;37.602;2023-04-24T03:26:33;13.98;;;8.65;;
73814;SDS011;62145;55.648;37.602;2023-04-24T03:29:13;14.30;;;8.88;;
73814;SDS011;62145;55.648;37.602;2023-04-24T03:31:40;14.23;;;8.83;;
73814;SDS011;62145;55.648;37.602;2023-04-24T03:34:06;14.40;;;8.55;;
73814;SDS011;62145;55.648;37.602;2023-04-24T03:36:32;18.00;;;9.30;;
73814;SDS011;62145;55.648;37.602;2023-04-24T03:38:57;17.90;;;9.10;;
73814;SDS011;62145;55.648;37.602;2023-04-24T03:41:29;15.77;;;9.70;;
73814;SDS011;62145;55.648;37.602;2023-04-24T03:44:05;17.77;;;9.73;;
73814;SDS011;62145;55.648;37.602;2023-04-24T03:46:31;14.05;;;9.85;;
73814;SDS011;62145;55.648;37.602;2023-04-24T03:48:59;15.80;;;9.30;;
73814;SDS011;62145;55.648;37.602;2023-04-24T03:51:29;14.67;;;9.43;;
73814;SDS011;62145;55.648;37.602;2023-04-24T03:54:04;14.02;;;9.85;;
73814;SDS011;62145;55.648;37.602;2023-04-24T03:56:33;12.65;;;9.20;;
73814;SDS011;62145;55.648;37.602;2023-04-24T03:59:00;15.25;;;9.57;;
73814;SDS011;62145;55.648;37.602;2023-04-24T04:01:26;14.93;;;9.30;;
73814;SDS011;62145;55.648;37.602;2023-04-24T04:04:08;15.43;;;9.30;;
73814;SDS011;62145;55.648;37.602;2023-04-24T04:06:35;15.85;;;9.55;;
73814;SDS011;62145;55.648;37.602;2023-04-24T04:09:01;14.50;;;9.13;;
73814;SDS011;62145;55.648;37.602;2023-04-24T04:11:29;13.45;;;9.00;;
73814;SDS011;62145;55.648;37.602;2023-04-24T04:13:55;13.38;;;8.50;;
73814;SDS011;62145;55.648;37.602;2023-04-24T04:16:22;13.27;;;9.10;;
73814;SDS011;62145;55.648;37.602;2023-04-24T04:18:52;14.18;;;8.27;;
73814;SDS011;62145;55.648;37.602;2023-04-24T04:21:19;15.82;;;8.90;;
73814;SDS011;62145;55.648;37.602;2023-04-24T04:23:46;17.52;;;8.90;;
73814;SDS011;62145;55.648;37.602;2023-04-24T04:26:27;16.88;;;8.77;;
73814;SDS011;62145;55.648;37.602;2023-04-24T04:29:07;15.90;;;8.30;;
73814;SDS011;62145;55.648;37.602;2023-04-24T04:31:37;38.80;;;9.65;;
73814;SDS011;62145;55.648;37.602;2023-04-24T04:34:07;11.55;;;8.07;;
73814;SDS011;62145;55.648;37.602;2023-04-24T04:36:34;12.52;;;7.88;;
73814;SDS011;62145;55.648;37.602;2023-04-24T04:39:12;12.50;;;8.05;;
73814;SDS011;62145;55.648;37.602;2023-04-24T04:41:47;10.73;;;8.00;;
73814;SDS011;62145;55.648;37.602;2023-04-24T04:44:16;11.55;;;7.72;;
73814;SDS011;62145;55.648;37.602;2023-04-24T04:46:42;13.68;;;7.50;;
73814;SDS011;62145;55.648;37.602;2023-04-24T04:49:29;11.13;;;7.82;;
73814;SDS011;62145;55.648;37.602;2023-04-24T04:51:56;13.05;;;8.48;;
73814;SDS011;62145;55.648;37.602;2023-04-24T04:54:24;12.60;;;7.20;;
73814;SDS011;62145;55.648;37.602;2023-04-24T04:56:50;21.23;;;8.50;;
73814;SDS011;62145;55.648;37.602;2023-04-24T04:59:19;11.02;;;7.65;;
73814;SDS011;62145;55.648;37.602;2023-04-24T05:01:47;12.52;;;7.50;;
73814;SDS011;62145;55.648;37.602;2023-04-24T05:04:14;12.13;;;7.53;;
73814;SDS011;62145;55.648;37.602;2023-04-24T05:06:40;11.10;;;7.35;;
73814;SDS011;62145;55.648;37.602;2023-04-24T05:09:06;10.20;;;7.35;;
73814;SDS011;62145;55.648;37.602;2023-04-24T05:11:42;11.63;;;7.45;;
73814;SDS011;62145;55.648;37.602;2023-04-24T05:14:09;12.57;;;7.50;;
73814;SDS011;62145;55.648;37.602;2023-04-24T05:16:37;12.52;;;7.20;;
73814;SDS011;62145;55.648;37.602;2023-04-24T05:19:04;10.50;;;7.57;;
73814;SDS011;62145;55.648;37.602;2023-04-24T05:21:35;11.07;;;7.30;;
73814;SDS011;62145;55.648;37.602;2023-04-24T05:24:01;12.77;;;7.60;;
73814;SDS011;62145;55.648;37.602;2023-04-24T05:26:59;10.52;;;6.80;;
73814;SDS011;62145;55.648;37.602;2023-04-24T05:29:31;12.60;;;7.63;;
73814;SDS011;62145;55.648;37.602;2023-04-24T05:31:58;13.30;;;7.82;;
73814;SDS011;62145;55.648;37.602;2023-04-24T05:34:26;11.82;;;7.93;;
73814;SDS011;62145;55.648;37.602;2023-04-24T05:36:55;15.17;;;8.23;;
73814;SDS011;62145;55.648;37.602;2023-04-24T05:39:21;14.73;;;8.55;;
73814;SDS011;62145;55.648;37.602;2023-04-24T05:41:46;11.52;;;7.78;;
73814;SDS011;62145;55.648;37.602;2023-04-24T05:44:12;12.03;;;8.00;;
73814;SDS011;62145;55.648;37.602;2023-04-24T05:46:38;11.03;;;7.63;;
73814;SDS011;62145;55.648;37.602;2023-04-24T05:49:04;11.80;;;7.90;;
73814;SDS011;62145;55.648;37.602;2023-04-24T05:51:32;13.03;;;7.90;;
73814;SDS011;62145;55.648;37.602;2023-04-24T05:53:58;11.80;;;8.75;;
73814;SDS011;62145;55.648;37.602;2023-04-24T05:56:25;11.90;;;9.15;;
73814;SDS011;62145;55.648;37.602;2023-04-24T05:58:50;14.23;;;9.05;;
73814;SDS011;62145;55.648;37.602;2023-04-24T06:01:16;15.07;;;9.63;;
73814;SDS011;62145;55.648;37.602;2023-04-24T06:03:48;13.93;;;8.95;;
73814;SDS011;62145;55.648;37.602;2023-04-24T06:06:14;14.40;;;9.35;;
73814;SDS011;62145;55.648;37.602;2023-04-24T06:08:41;14.23;;;9.10;;
73814;SDS011;62145;55.648;37.602;2023-04-24T06:11:08;15.87;;;9.23;;
73814;SDS011;62145;55.648;37.602;2023-04-24T06:13:34;14.32;;;9.18;;
73814;SDS011;62145;55.648;37.602;2023-04-24T06:16:32;16.58;;;8.68;;
73814;SDS011;62145;55.648;37.602;2023-04-24T06:19:03;13.02;;;7.75;;
73814;SDS011;62145;55.648;37.602;2023-04-24T06:21:29;11.85;;;7.63;;
73814;SDS011;62145;55.648;37.602;2023-04-24T06:23:56;12.17;;;7.77;;
73814;SDS011;62145;55.648;37.602;2023-04-24T06:26:23;12.02;;;7.68;;
73814;SDS011;62145;55.648;37.602;2023-04-24T06:28:50;11.57;;;7.82;;
73814;SDS011;62145;55.648;37.602;2023-04-24T06:31:18;15.95;;;8.50;;
73814;SDS011;62145;55.648;37.602;2023-04-24T06:33:44;13.57;;;8.20;;
73814;SDS011;62145;55.648;37.602;2023-04-24T06:36:09;15.70;;;8.35;;
73814;SDS011;62145;55.648;37.602;2023-04-24T06:38:35;12.45;;;8.57;;
73814;SDS011;62145;55.648;37.602;2023-04-24T06:41:01;14.60;;;8.60;;
73814;SDS011;62145;55.648;37.602;2023-04-24T06:43:28;14.73;;;8.53;;
73814;SDS011;62145;55.648;37.602;2023-04-24T06:45:54;10.02;;;7.47;;
73814;SDS011;62145;55.648;37.602;2023-04-24T06:48:20;11.90;;;8.10;;
73814;SDS011;62145;55.648;37.602;2023-04-24T06:50:45;12.03;;;6.93;;
73814;SDS011;62145;55.648;37.602;2023-04-24T06:53:12;11.88;;;6.63;;
73814;SDS011;62145;55.648;37.602;2023-04-24T06:55:39;10.32;;;6.70;;
73814;SDS011;62145;55.648;37.602;2023-04-24T06:58:05;9.43;;;5.90;;
73814;SDS011;62145;55.648;37.602;2023-04-24T07:00:31;9.60;;;6.80;;
73814;SDS011;62145;55.648;37.602;2023-04-24T07:02:57;13.32;;;6.82;;
73814;SDS011;62145;55.648;37.602;2023-04-24T07:05:23;11.73;;;6.40;;
73814;SDS011;62145;55.648;37.602;2023-04-24T07:07:49;13.25;;;7.10;;
73814;SDS011;62145;55.648;37.602;2023-04-24T07:10:15;12.20;;;6.88;;
73814;SDS011;62145;55.648;37.602;2023-04-24T07:12:41;10.47;;;6.77;;
73814;SDS011;62145;55.648;37.602;2023-04-24T07:15:07;11.20;;;7.50;;
73814;SDS011;62145;55.648;37.602;2023-04-24T07:17:34;13.55;;;7.20;;
73814;SDS011;62145;55.648;37.602;2023-04-24T07:20:00;13.15;;;7.40;;
73814;SDS011;62145;55.648;37.602;2023-04-24T07:22:26;12.63;;;7.60;;
73814;SDS011;62145;55.648;37.602;2023-04-24T07:24:52;10.43;;;7.28;;
73814;SDS011;62145;55.648;37.602;2023-04-24T07:27:17;8.37;;;5.87;;
73814;SDS011;62145;55.648;37.602;2023-04-24T07:29:43;8.90;;;5.97;;
73814;SDS011;62145;55.648;37.602;2023-04-24T07:32:09;10.18;;;5.82;;
73814;SDS011;62145;55.648;37.602;2023-04-24T07:34:35;10.23;;;6.32;;
73814;SDS011;62145;55.648;37.602;2023-04-24T07:37:01;10.17;;;5.97;;
73814;SDS011;62145;55.648;37.602;2023-04-24T07:39:27;8.85;;;5.85;;
73814;SDS011;62145;55.648;37.602;2023-04-24T07:41:54;10.45;;;6.30;;
73814;SDS011;62145;55.648;37.602;2023-04-24T07:44:20;10.33;;;5.73;;
73814;SDS011;62145;55.648;37.602;2023-04-24T07:46:45;11.18;;;5.78;;
73814;SDS011;62145;55.648;37.602;2023-04-24T07:49:12;11.18;;;5.13;;
73814;SDS011;62145;55.648;37.602;2023-04-24T07:51:38;7.13;;;5.40;;
73814;SDS011;62145;55.648;37.602;2023-04-24T07:54:04;9.13;;;5.50;;
73814;SDS011;62145;55.648;37.602;2023-04-24T07:56:33;7.32;;;5.32;;
73814;SDS011;62145;55.648;37.602;2023-04-24T07:58:59;8.40;;;5.40;;
73814;SDS011;62145;55.648;37.602;2023-04-24T08:01:26;9.13;;;5.70;;
73814;SDS011;62145;55.648;37.602;2023-04-24T08:03:52;7.93;;;5.47;;
73814;SDS011;62145;55.648;37.602;2023-04-24T08:06:18;8.30;;;5.53;;
73814;SDS011;62145;55.648;37.602;2023-04-24T08:08:44;12.27;;;5.50;;
73814;SDS011;62145;55.648;37.602;2023-04-24T08:11:12;9.38;;;5.45;;
73814;SDS011;62145;55.648;37.602;2023-04-24T08:13:40;7.60;;;5.05;;
73814;SDS011;62145;55.648;37.602;2023-04-24T08:16:09;7.73;;;5.20;;
73814;SDS011;62145;55.648;37.602;2023-04-24T08:18:35;8.13;;;5.28;;
73814;SDS011;62145;55.648;37.602;2023-04-24T08:21:04;6.90;;;4.97;;
73814;SDS011;62145;55.648;37.602;2023-04-24T08:23:30;8.02;;;5.18;;
73814;SDS011;62145;55.648;37.602;2023-04-24T08:25:55;8.27;;;6.00;;
73814;SDS011;62145;55.648;37.602;2023-04-24T08:28:22;9.10;;;5.35;;
73814;SDS011;62145;55.648;37.602;2023-04-24T08:30:48;8.30;;;5.53;;
73814;SDS011;62145;55.648;37.602;2023-04-24T08:33:23;9.80;;;5.38;;
73814;SDS011;62145;55.648;37.602;2023-04-24T08:35:49;8.53;;;5.40;;
73814;SDS011;62145;55.648;37.602;2023-04-24T08:38:15;8.25;;;4.70;;
73814;SDS011;62145;55.648;37.602;2023-04-24T08:40:41;7.85;;;5.18;;
73814;SDS011;62145;55.648;37.602;2023-04-24T08:43:11;7.25;;;5.25;;
73814;SDS011;62145;55.648;37.602;2023-04-24T08:45:40;8.73;;;5.53;;
73814;SDS011;62145;55.648;37.602;2023-04-24T08:48:06;8.83;;;5.17;;
73814;SDS011;62145;55.648;37.602;2023-04-24T08:50:35;11.68;;;7.13;;
73814;SDS011;62145;55.648;37.602;2023-04-24T08:53:04;8.40;;;5.65;;
73814;SDS011;62145;55.648;37.602;2023-04-24T08:55:32;8.60;;;4.93;;
73814;SDS011;62145;55.648;37.602;2023-04-24T08:57:59;7.97;;;4.63;;
73814;SDS011;62145;55.648;37.602;2023-04-24T09:00:25;8.80;;;5.00;;
73814;SDS011;62145;55.648;37.602;2023-04-24T09:02:54;10.30;;;5.32;;
73814;SDS011;62145;55.648;37.602;2023-04-24T09:05:21;10.88;;;5.63;;
73814;SDS011;62145;55.648;37.602;2023-04-24T09:08:06;9.20;;;5.28;;
73814;SDS011;62145;55.648;37.602;2023-04-24T09:10:33;8.60;;;5.00;;
73814;SDS011;62145;55.648;37.602;2023-04-24T09:13:02;9.73;;;5.00;;
73814;SDS011;62145;55.648;37.602;2023-04-24T09:15:28;10.60;;;4.88;;
73814;SDS011;62145;55.648;37.602;2023-04-24T09:17:55;12.20;;;5.05;;
73814;SDS011;62145;55.648;37.602;2023-04-24T09:20:21;8.45;;;4.95;;
73814;SDS011;62145;55.648;37.602;2023-04-24T09:22:47;10.00;;;4.83;;
73814;SDS011;62145;55.648;37.602;2023-04-24T09:25:13;9.63;;;4.93;;
73814;SDS011;62145;55.648;37.602;2023-04-24T09:27:42;8.85;;;4.70;;
73814;SDS011;62145;55.648;37.602;2023-04-24T09:30:09;9.53;;;4.87;;
73814;SDS011;62145;55.648;37.602;2023-04-24T09:32:35;8.35;;;5.03;;
73814;SDS011;62145;55.648;37.602;2023-04-24T09:35:19;10.52;;;5.07;;
73814;SDS011;62145;55.648;37.602;2023-04-24T09:37:46;10.18;;;5.15;;
73814;SDS011;62145;55.648;37.602;2023-04-24T09:40:17;11.48;;;4.80;;
73814;SDS011;62145;55.648;37.602;2023-04-24T09:42:46;7.70;;;5.10;;
73814;SDS011;62145;55.648;37.602;2023-04-24T09:45:17;8.20;;;5.18;;
73814;SDS011;62145;55.648;37.602;2023-04-24T09:47:50;7.75;;;4.57;;
73814;SDS011;62145;55.648;37.602;2023-04-24T09:50:17;9.10;;;5.05;;
73814;SDS011;62145;55.648;37.602;2023-04-24T09:52:44;7.47;;;4.88;;
73814;SDS011;62145;55.648;37.602;2023-04-24T09:55:18;7.43;;;4.37;;
73814;SDS011;62145;55.648;37.602;2023-04-24T09:57:48;9.02;;;5.00;;
73814;SDS011;62145;55.648;37.602;2023-04-24T10:00:17;9.85;;;4.88;;
73814;SDS011;62145;55.648;37.602;2023-04-24T10:02:44;8.98;;;5.00;;
73814;SDS011;62145;55.648;37.602;2023-04-24T10:05:11;8.00;;;5.07;;
73814;SDS011;62145;55.648;37.602;2023-04-24T10:07:37;7.50;;;4.47;;
73814;SDS011;62145;55.648;37.602;2023-04-24T10:10:03;8.27;;;5.00;;
73814;SDS011;62145;55.648;37.602;2023-04-24T10:12:30;9.35;;;5.13;;
73814;SDS011;62145;55.648;37.602;2023-04-24T10:14:56;10.63;;;5.20;;
73814;SDS011;62145;55.648;37.602;2023-04-24T10:17:23;10.37;;;4.60;;
73814;SDS011;62145;55.648;37.602;2023-04-24T10:19:51;8.18;;;4.85;;
73814;SDS011;62145;55.648;37.602;2023-04-24T10:22:16;8.48;;;4.90;;
73814;SDS011;62145;55.648;37.602;2023-04-24T10:24:45;8.18;;;5.00;;
73814;SDS011;62145;55.648;37.602;2023-04-24T10:27:15;7.63;;;4.90;;
73814;SDS011;62145;55.648;37.602;2023-04-24T10:29:41;9.37;;;4.97;;
73814;SDS011;62145;55.648;37.602;2023-04-24T10:32:09;8.07;;;4.95;;
73814;SDS011;62145;55.648;37.602;2023-04-24T10:34:36;7.38;;;4.82;;
73814;SDS011;62145;55.648;37.602;2023-04-24T10:37:02;8.88;;;4.63;;
73814;SDS011;62145;55.648;37.602;2023-04-24T10:39:29;8.57;;;4.40;;
73814;SDS011;62145;55.648;37.602;2023-04-24T10:41:56;8.47;;;4.67;;
73814;SDS011;62145;55.648;37.602;2023-04-24T10:44:23;8.40;;;4.60;;
73814;SDS011;62145;55.648;37.602;2023-04-24T10:46:53;7.95;;;4.50;;
73814;SDS011;62145;55.648;37.602;2023-04-24T10:49:30;10.57;;;5.05;;
73814;SDS011;62145;55.648;37.602;2023-04-24T10:52:00;8.88;;;4.80;;
73814;SDS011;62145;55.648;37.602;2023-04-24T10:54:28;9.40;;;4.47;;
73814;SDS011;62145;55.648;37.602;2023-04-24T10:59:43;9.20;;;4.57;;
73814;SDS011;62145;55.648;37.602;2023-04-24T11:02:09;7.57;;;4.30;;
73814;SDS011;62145;55.648;37.602;2023-04-24T11:04:35;8.40;;;5.00;;
73814;SDS011;62145;55.648;37.602;2023-04-24T11:07:05;6.90;;;4.40;;
73814;SDS011;62145;55.648;37.602;2023-04-24T11:09:31;7.72;;;4.60;;
73814;SDS011;62145;55.648;37.602;2023-04-24T11:12:07;6.65;;;4.05;;
73814;SDS011;62145;55.648;37.602;2023-04-24T11:17:37;7.87;;;4.63;;
73814;SDS011;62145;55.648;37.602;2023-04-24T11:20:15;9.70;;;4.50;;
73814;SDS011;62145;55.648;37.602;2023-04-24T11:22:42;7.57;;;4.00;;
73814;SDS011;62145;55.648;37.602;2023-04-24T11:25:09;8.17;;;4.67;;
73814;SDS011;62145;55.648;37.602;2023-04-24T11:30:09;7.50;;;4.38;;
73814;SDS011;62145;55.648;37.602;2023-04-24T11:32:39;8.57;;;4.10;;
73814;SDS011;62145;55.648;37.602;2023-04-24T11:35:09;8.80;;;4.72;;
73814;SDS011;62145;55.648;37.602;2023-04-24T11:37:43;8.67;;;4.50;;
73814;SDS011;62145;55.648;37.602;2023-04-24T11:40:17;12.18;;;4.60;;
73814;SDS011;62145;55.648;37.602;2023-04-24T11:42:51;9.25;;;4.28;;
73814;SDS011;62145;55.648;37.602;2023-04-24T11:45:20;7.57;;;4.20;;
73814;SDS011;62145;55.648;37.602;2023-04-24T11:47:47;11.48;;;4.68;;
73814;SDS011;62145;55.648;37.602;2023-04-24T11:50:14;9.90;;;4.50;;
73814;SDS011;62145;55.648;37.602;2023-04-24T11:52:42;7.82;;;4.57;;
73814;SDS011;62145;55.648;37.602;2023-04-24T11:55:30;7.28;;;3.83;;
73814;SDS011;62145;55.648;37.602;2023-04-24T11:57:56;8.18;;;4.22;;
73814;SDS011;62145;55.648;37.602;2023-04-24T12:00:25;7.97;;;4.07;;
73814;SDS011;62145;55.648;37.602;2023-04-24T12:03:06;9.43;;;4.50;;
73814;SDS011;62145;55.648;37.602;2023-04-24T12:05:36;7.60;;;4.10;;
73814;SDS011;62145;55.648;37.602;2023-04-24T12:08:03;7.78;;;4.47;;
73814;SDS011;62145;55.648;37.602;2023-04-24T12:10:31;8.52;;;4.30;;
73814;SDS011;62145;55.648;37.602;2023-04-24T12:12:58;6.72;;;4.50;;
73814;SDS011;62145;55.648;37.602;2023-04-24T12:15:26;9.13;;;4.43;;
73814;SDS011;62145;55.648;37.602;2023-04-24T12:17:52;7.80;;;4.22;;
73814;SDS011;62145;55.648;37.602;2023-04-24T12:20:23;8.85;;;3.97;;
73814;SDS011;62145;55.648;37.602;2023-04-24T12:22:54;6.55;;;4.10;;
73814;SDS011;62145;55.648;37.602;2023-04-24T12:25:33;8.68;;;4.00;;
73814;SDS011;62145;55.648;37.602;2023-04-24T12:30:32;7.47;;;4.20;;
73814;SDS011;62145;55.648;37.602;2023-04-24T12:33:02;10.32;;;4.50;;
73814;SDS011;62145;55.648;37.602;2023-04-24T12:35:29;7.00;;;4.00;;
73814;SDS011;62145;55.648;37.602;2023-04-24T12:38:07;7.22;;;3.83;;
73814;SDS011;62145;55.648;37.602;2023-04-24T12:40:38;9.67;;;4.30;;
73814;SDS011;62145;55.648;37.602;2023-04-24T12:43:17;7.63;;;3.72;;
73814;SDS011;62145;55.648;37.602;2023-04-24T12:45:44;8.10;;;4.05;;
73814;SDS011;62145;55.648;37.602;2023-04-24T12:48:11;9.38;;;4.20;;
73814;SDS011;62145;55.648;37.602;2023-04-24T12:50:37;7.35;;;4.00;;
73814;SDS011;62145;55.648;37.602;2023-04-24T12:53:03;7.80;;;4.03;;
73814;SDS011;62145;55.648;37.602;2023-04-24T12:55:29;8.15;;;3.97;;
73814;SDS011;62145;55.648;37.602;2023-04-24T12:57:55;7.25;;;4.00;;
73814;SDS011;62145;55.648;37.602;2023-04-24T13:00:22;7.30;;;3.42;;
73814;SDS011;62145;55.648;37.602;2023-04-24T13:02:47;9.13;;;4.60;;
73814;SDS011;62145;55.648;37.602;2023-04-24T13:05:13;7.90;;;4.78;;
73814;SDS011;62145;55.648;37.602;2023-04-24T13:07:39;8.63;;;4.10;;
73814;SDS011;62145;55.648;37.602;2023-04-24T13:10:05;7.00;;;4.10;;
73814;SDS011;62145;55.648;37.602;2023-04-24T13:12:32;7.50;;;4.13;;
73814;SDS011;62145;55.648;37.602;2023-04-24T13:14:58;7.72;;;4.10;;
73814;SDS011;62145;55.648;37.602;2023-04-24T13:17:24;9.40;;;3.97;;
73814;SDS011;62145;55.648;37.602;2023-04-24T13:19:50;6.78;;;3.72;;
73814;SDS011;62145;55.648;37.602;2023-04-24T13:22:17;8.40;;;4.10;;
73814;SDS011;62145;55.648;37.602;2023-04-24T13:24:44;7.18;;;4.20;;
73814;SDS011;62145;55.648;37.602;2023-04-24T13:27:10;7.22;;;4.00;;
73814;SDS011;62145;55.648;37.602;2023-04-24T13:29:36;7.10;;;4.00;;
73814;SDS011;62145;55.648;37.602;2023-04-24T13:32:03;7.70;;;4.17;;
73814;SDS011;62145;55.648;37.602;2023-04-24T13:34:29;7.97;;;4.22;;
73814;SDS011;62145;55.648;37.602;2023-04-24T13:36:55;8.13;;;4.03;;
73814;SDS011;62145;55.648;37.602;2023-04-24T13:39:22;8.43;;;4.13;;
73814;SDS011;62145;55.648;37.602;2023-04-24T13:41:49;7.13;;;4.03;;
73814;SDS011;62145;55.648;37.602;2023-04-24T13:44:15;7.03;;;3.90;;
73814;SDS011;62145;55.648;37.602;2023-04-24T13:46:42;7.50;;;3.83;;
73814;SDS011;62145;55.648;37.602;2023-04-24T13:49:12;7.10;;;3.72;;
73814;SDS011;62145;55.648;37.602;2023-04-24T13:51:38;7.10;;;3.88;;
73814;SDS011;62145;55.648;37.602;2023-04-24T13:54:05;10.83;;;4.00;;
73814;SDS011;62145;55.648;37.602;2023-04-24T13:56:31;9.45;;;4.00;;
73814;SDS011;62145;55.648;37.602;2023-04-24T13:58:57;9.43;;;4.28;;
73814;SDS011;62145;55.648;37.602;2023-04-24T14:01:23;8.00;;;3.83;;
73814;SDS011;62145;55.648;37.602;2023-04-24T14:03:50;6.53;;;3.50;;
73814;SDS011;62145;55.648;37.602;2023-04-24T14:06:19;8.57;;;3.85;;
73814;SDS011;62145;55.648;37.602;2023-04-24T14:08:46;6.38;;;3.58;;
73814;SDS011;62145;55.648;37.602;2023-04-24T14:11:12;6.63;;;3.67;;
73814;SDS011;62145;55.648;37.602;2023-04-24T14:13:38;7.33;;;3.83;;
73814;SDS011;62145;55.648;37.602;2023-04-24T14:16:04;8.30;;;3.90;;
73814;SDS011;62145;55.648;37.602;2023-04-24T14:18:31;7.07;;;3.85;;
73814;SDS011;62145;55.648;37.602;2023-04-24T14:21:00;7.40;;;4.00;;
73814;SDS011;62145;55.648;37.602;2023-04-24T14:23:27;8.50;;;3.85;;
73814;SDS011;62145;55.648;37.602;2023-04-24T14:25:52;8.38;;;3.97;;
73814;SDS011;62145;55.648;37.602;2023-04-24T14:28:19;6.90;;;3.90;;
73814;SDS011;62145;55.648;37.602;2023-04-24T14:30:45;11.73;;;4.60;;
73814;SDS011;62145;55.648;37.602;2023-04-24T14:33:12;8.25;;;4.65;;
73814;SDS011;62145;55.648;37.602;2023-04-24T14:35:38;7.22;;;3.95;;
73814;SDS011;62145;55.648;37.602;2023-04-24T14:38:05;14.55;;;4.18;;
73814;SDS011;62145;55.648;37.602;2023-04-24T14:40:31;9.03;;;4.20;;
73814;SDS011;62145;55.648;37.602;2023-04-24T14:42:57;7.85;;;4.10;;